RMK

Tweets about a recent trend: RMK

RT @Fashion_Alice01: このツイートをRT&フォローするだけで「RMK、YSL、フラワーリップなど豪華3点セット」が5名に!〆10月17日、当選はDMにて
@TheRickWilson KPAM 101156Z AUTO 09017G25KT 7SM -RA SCT014 24/24 A2950 RMK AO2 PK WND 12033/04 PRESFR SLP993 P0026… https://t.co/58C8CkNrfX
RT @felvallejos: 2017: jactandose de viajar en 1era clase 2018: mendigando plata en Twitter #TiemposMejores https://t.co/G7srD3dwIV
ロスモワ小説のあやちゃんの計算をし直してる時に伏見さんとあやちゃんの板挟みされて「八田!!」って伏見さんに言われて伏見さんの言ってることに集中するシーンすこ
RT @Fashion_Alice01: このツイートをRT&フォローするだけで「RMK、YSL、フラワーリップなど豪華3点セット」が5名に!〆10月17日、当選はDMにて
@Par__0v0 え、うらやましい!!!🍊✨
@Sandra_VetChile @DescuentosRata Rapido, facil, barato y rico. Que mejor 😊
LWIS CZBA 101245Z AUTO 25011G17KT SCT050 22/17 A2998 RMK DENSITY ALT 1700FT ADVISORY ONLY=
(すぐ推しカプを動物カフェに連れ込もうとするな)
RMKで買った限定チーク 14日につけてこ〜♪
その日はちょっとだけ距離近くなってくれてもいいn
久しぶりにRMKのミスティックグローを使ったんだけど、改めてやっぱりこれ素晴らしくかわいいよね!!!🤤💜💜💜笑 マーブルな見た目もかわいいし、なんと言っても青ラメ🤤🤤🤤 付けた時のラメのザクザク感ですら幸せ…🤤💜笑 テンション… https://t.co/2z3RXdQ3Iu
猫カフェに行って猫に好かれたくないのに猫に好かれる伏見さんと猫に好かれる伏見さんからそのうち猫に嫉妬する八田さんが見たいよ(なんで猫カフェ行ったんだろうな)
2018/10/10 12:30 RCSS 101230Z 14003KT 060V200 6000 -RA FEW008 BKN020 BKN035 23/21 Q1016 NOSIG RMK A3002
2018/10/10 12:30 RCTP 101230Z 05015G26KT 7000 -RA SCT014 BKN025 BKN040 23/21 Q1016 NOSIG RMK A3003
#METAR UHHH 101230Z 24002MPS 9999 FEW027 05/01 Q1016 R23L/090060 NOSIG RMK QFE756/1008
2018/10/10 12:30 RCKH 101230Z 08005KT 6000 -DZ FEW012TCU FEW014 BKN035 BKN060 25/23 Q1014 NOSIG RMK TCU S A2995
2018/10/10 12:30 RCNN 101230Z 01006KT 9000 FEW012 BKN050 24/19 Q1014 RMK A2995
2018/10/10 12:30 RCMQ 101230Z 01013KT 9999 FEW010 BKN050 23/18 Q1014 NOSIG RMK A2997
RT @fashionpressnet: RMKからティントタイプの香り付きオイルグロス、メープルシロップや苺が香る全4色 - https://t.co/0xn3JzL4YC https://t.co/SeZc3fJ1iK
RT @fashionpressnet: RMKからティントタイプの香り付きオイルグロス、メープルシロップや苺が香る全4色 - https://t.co/0xn3JzL4YC https://t.co/SeZc3fJ1iK
RT @sk_syuuto128: 工大一高の男性教師 教師になる前にデコピンの武者修行のため1年間山にこもってる説
金から月まででもいいよね…(?????)長いから却下だ
誰かが言いました。言うだけならタダだって。
同棲猿美の朝から晩までの1日を四コマにしたものとか作りたいよね